Time;durP1;ratioP1;P1;durP2;ratioP2;P2;SDS_P1;SDS_P2;PMS_P1;PMS_P2;Temp;Humidity;BMP_temperature;BMP_pressure;BME280_temperature;BME280_humidity;BME280_pressure;Samples;Min_cycle;Max_cycle;Signal;HPM_P1;HPM_P2
2020/12/10 00:01:36;;;;;;;27.92;16.35;;;3.20;99.90;;;;;;5044349;28;20243;-80
2020/12/10 00:04:05;;;;;;;18.95;14.40;;;3.20;99.90;;;;;;5038962;28;20293;-80
2020/12/10 00:06:32;;;;;;;22.50;13.68;;;3.00;99.90;;;;;;5030993;28;20288;-79
2020/12/10 00:09:00;;;;;;;19.75;14.48;;;2.80;99.90;;;;;;5036774;28;20602;-79
2020/12/10 00:11:30;;;;;;;21.98;14.38;;;2.80;99.90;;;;;;5050298;28;20196;-80
2020/12/10 00:13:57;;;;;;;21.30;14.57;;;2.90;99.90;;;;;;5048622;28;20247;-79
2020/12/10 00:16:25;;;;;;;23.63;15.45;;;2.90;99.90;;;;;;5039400;28;20287;-80
2020/12/10 00:18:51;;;;;;;19.10;13.77;;;3.10;99.90;;;;;;5039984;28;20286;-80
2020/12/10 00:21:21;;;;;;;23.58;15.55;;;2.90;99.90;;;;;;5050777;28;20200;-80
2020/12/10 00:23:49;;;;;;;22.08;13.93;;;3.00;99.90;;;;;;5049016;28;20199;-80
2020/12/10 00:26:20;;;;;;;20.60;14.93;;;2.80;99.90;;;;;;5040256;28;20220;-80
2020/12/10 00:28:51;;;;;;;20.70;13.98;;;2.90;99.90;;;;;;5040796;28;20217;-80
2020/12/10 00:31:19;;;;;;;24.05;14.82;;;2.90;99.90;;;;;;5050149;28;20208;-80
2020/12/10 00:33:46;;;;;;;19.20;13.98;;;2.90;99.90;;;;;;5046610;28;20250;-80
2020/12/10 00:36:14;;;;;;;21.75;14.20;;;2.90;99.90;;;;;;5050399;28;20227;-80
2020/12/10 00:38:42;;;;;;;23.50;13.15;;;2.70;99.90;;;;;;5041218;28;20219;-80
2020/12/10 00:41:10;;;;;;;21.20;13.75;;;2.60;99.90;;;;;;5049228;28;20742;-80
2020/12/10 00:43:37;;;;;;;21.63;13.95;;;2.40;99.90;;;;;;5037992;28;20192;-80
2020/12/10 00:46:06;;;;;;;20.23;12.40;;;2.50;99.90;;;;;;5038545;28;20208;-80
2020/12/10 00:48:33;;;;;;;23.08;13.85;;;2.40;99.90;;;;;;5039469;28;20727;-80
2020/12/10 00:51:00;;;;;;;19.70;14.30;;;2.50;99.90;;;;;;5050957;28;20204;-80
2020/12/10 00:53:27;;;;;;;21.42;13.88;;;2.60;99.90;;;;;;5047077;28;20211;-80
2020/12/10 00:55:55;;;;;;;23.83;14.60;;;2.70;99.90;;;;;;5046952;28;20550;-80
2020/12/10 00:58:22;;;;;;;23.25;16.88;;;2.60;99.90;;;;;;5036372;28;20235;-80
2020/12/10 01:00:49;;;;;;;24.48;15.10;;;2.70;99.90;;;;;;5031119;28;20247;-80
2020/12/10 01:03:16;;;;;;;25.40;16.50;;;2.70;99.90;;;;;;5049109;28;20611;-80
2020/12/10 01:05:42;;;;;;;27.70;17.08;;;2.70;99.90;;;;;;5048380;28;20509;-80
2020/12/10 01:08:08;;;;;;;23.90;15.88;;;2.70;99.90;;;;;;5043556;28;20262;-80
2020/12/10 01:10:35;;;;;;;17.60;12.88;;;2.60;99.90;;;;;;5030951;28;20193;-80
2020/12/10 01:13:03;;;;;;;24.50;15.00;;;2.50;99.90;;;;;;5030544;28;20617;-80
2020/12/10 01:15:30;;;;;;;18.67;12.40;;;2.60;99.90;;;;;;5049397;28;20239;-80
2020/12/10 01:17:56;;;;;;;25.25;15.10;;;2.50;99.90;;;;;;5033631;28;20200;-80
2020/12/10 01:20:24;;;;;;;17.70;13.27;;;2.10;99.90;;;;;;5049817;28;20257;-80
2020/12/10 01:22:50;;;;;;;23.65;14.23;;;2.30;99.90;;;;;;5032504;28;20239;-80
2020/12/10 01:25:17;;;;;;;20.80;13.85;;;2.40;99.90;;;;;;5045574;28;20200;-81
2020/12/10 01:27:43;;;;;;;20.75;14.55;;;2.50;99.90;;;;;;5030703;28;20306;-80
2020/12/10 01:30:10;;;;;;;22.58;14.98;;;2.70;99.90;;;;;;5034036;28;20243;-80
2020/12/10 01:32:37;;;;;;;23.27;15.75;;;2.80;99.90;;;;;;5029983;28;20259;-80
2020/12/10 01:35:03;;;;;;;22.02;13.63;;;2.70;99.90;;;;;;5030454;28;20240;-80
2020/12/10 01:37:30;;;;;;;20.55;15.30;;;2.80;99.90;;;;;;5030236;28;20258;-80
2020/12/10 01:39:56;;;;;;;28.35;16.77;;;2.90;99.90;;;;;;5047089;28;20282;-81
2020/12/10 01:42:22;;;;;;;30.88;17.98;;;2.80;99.90;;;;;;5049173;28;20681;-80
2020/12/10 01:44:49;;;;;;;24.70;15.68;;;2.80;99.90;;;;;;5038053;28;20700;-81
2020/12/10 01:47:17;;;;;;;20.80;15.27;;;2.50;99.90;;;;;;5049944;28;20622;-80
2020/12/10 01:49:44;;;;;;;25.20;16.30;;;2.50;99.90;;;;;;5030632;28;20724;-81
2020/12/10 01:52:10;;;;;;;24.27;16.15;;;2.60;99.90;;;;;;5042705;28;20208;-80
2020/12/10 01:54:37;;;;;;;22.65;16.77;;;2.70;99.90;;;;;;5034325;28;20197;-80
2020/12/10 01:57:03;;;;;;;24.00;14.75;;;2.60;99.90;;;;;;5046824;28;20258;-80
2020/12/10 01:59:30;;;;;;;25.00;17.38;;;2.50;99.90;;;;;;5046300;28;20242;-80
2020/12/10 02:01:56;;;;;;;24.63;14.50;;;2.60;99.90;;;;;;5035330;28;20228;-80
2020/12/10 02:04:29;;;;;;;26.90;15.73;;;2.70;99.90;;;;;;5035694;28;20295;-80
2020/12/10 02:07:03;;;;;;;22.17;16.13;;;2.70;99.90;;;;;;5038455;28;20571;-80
2020/12/10 02:09:32;;;;;;;29.38;16.02;;;2.80;99.90;;;;;;5040419;28;20204;-80
2020/12/10 02:12:00;;;;;;;25.67;17.25;;;3.00;99.90;;;;;;5047847;28;20215;-81
2020/12/10 02:14:33;;;;;;;23.70;15.35;;;3.10;99.90;;;;;;5039468;28;20200;-80
2020/12/10 02:17:03;;;;;;;25.38;16.00;;;3.10;99.90;;;;;;5047238;28;20253;-80
2020/12/10 02:19:32;;;;;;;22.92;16.00;;;3.10;99.90;;;;;;5036423;28;20623;-81
2020/12/10 02:22:01;;;;;;;26.83;17.85;;;3.10;99.90;;;;;;5061672;28;20629;-81
2020/12/10 02:24:29;;;;;;;24.67;14.88;;;3.10;99.90;;;;;;5032622;28;20402;-80
2020/12/10 02:26:58;;;;;;;22.55;15.85;;;3.10;99.90;;;;;;5031113;28;20731;-81
2020/12/10 02:29:25;;;;;;;25.60;15.57;;;3.20;99.90;;;;;;5049006;28;20269;-81
2020/12/10 02:31:54;;;;;;;28.90;16.92;;;3.20;99.90;;;;;;5051976;28;20198;-80
2020/12/10 02:34:22;;;;;;;29.75;15.57;;;3.30;99.90;;;;;;5050709;28;20268;-80
2020/12/10 02:36:50;;;;;;;23.13;15.80;;;3.30;99.90;;;;;;5053504;28;20218;-81
2020/12/10 02:39:18;;;;;;;26.90;15.55;;;3.20;99.70;;;;;;5040671;28;20204;-81
2020/12/10 02:41:51;;;;;;;23.13;14.63;;;3.20;99.80;;;;;;5033798;28;20295;-80
2020/12/10 02:44:19;;;;;;;23.75;16.05;;;3.30;99.60;;;;;;5034075;28;20207;-80
2020/12/10 02:46:45;;;;;;;23.08;15.10;;;3.30;99.50;;;;;;5034509;28;20662;-80
2020/12/10 02:49:12;;;;;;;23.20;14.85;;;3.30;99.40;;;;;;5037901;28;20196;-81
2020/12/10 02:51:42;;;;;;;23.30;14.27;;;3.30;99.30;;;;;;5053128;28;20200;-80
2020/12/10 02:54:08;;;;;;;21.25;14.48;;;3.20;99.60;;;;;;5042778;28;20233;-80
2020/12/10 02:56:37;;;;;;;22.20;15.93;;;3.30;99.30;;;;;;5046208;28;20258;-80
2020/12/10 02:59:04;;;;;;;20.08;13.75;;;3.20;99.50;;;;;;5049206;28;20208;-81
2020/12/10 03:01:35;;;;;;;22.70;15.93;;;3.20;99.30;;;;;;5032846;28;20215;-80
2020/12/10 03:04:02;;;;;;;26.33;17.33;;;3.10;99.40;;;;;;5042689;28;20214;-80
2020/12/10 03:06:29;;;;;;;20.52;14.65;;;3.10;99.50;;;;;;5052412;28;20234;-80
2020/12/10 03:08:56;;;;;;;22.13;13.90;;;3.20;99.60;;;;;;5042664;28;20674;-80
2020/12/10 03:11:22;;;;;;;23.55;13.73;;;3.20;99.50;;;;;;5043442;28;20243;-80
2020/12/10 03:13:49;;;;;;;24.50;14.90;;;3.20;99.40;;;;;;5045620;28;20218;-80
2020/12/10 03:16:16;;;;;;;21.95;15.52;;;3.20;99.30;;;;;;5044173;28;20646;-80
2020/12/10 03:18:43;;;;;;;25.65;15.13;;;3.20;99.50;;;;;;5050802;28;20208;-80
2020/12/10 03:21:12;;;;;;;28.67;16.65;;;3.20;99.50;;;;;;5051009;28;20240;-80
2020/12/10 03:23:38;;;;;;;26.30;15.02;;;2.80;99.20;;;;;;5049562;28;20199;-81
2020/12/10 03:26:05;;;;;;;22.55;15.77;;;3.50;99.90;;;;;;5043488;28;20197;-80
2020/12/10 03:28:31;;;;;;;30.23;15.50;;;2.50;99.90;;;;;;5038590;28;20200;-81
2020/12/10 03:30:58;;;;;;;30.55;16.52;;;2.70;99.90;;;;;;5044814;28;20270;-80
2020/12/10 03:33:25;;;;;;;32.33;17.77;;;2.70;99.90;;;;;;5033524;28;20213;-80
2020/12/10 03:35:52;;;;;;;28.48;16.17;;;2.80;99.90;;;;;;5050598;28;20195;-80
2020/12/10 03:38:18;;;;;;;38.50;16.80;;;3.00;99.90;;;;;;5045441;28;20205;-80
2020/12/10 03:40:44;;;;;;;24.45;17.52;;;3.00;99.90;;;;;;5038126;28;20204;-81
2020/12/10 03:43:11;;;;;;;29.15;17.73;;;3.10;99.90;;;;;;5051749;28;20219;-80
2020/12/10 03:45:37;;;;;;;26.55;17.50;;;3.10;99.90;;;;;;5036789;28;20259;-80
2020/12/10 03:48:03;;;;;;;25.63;16.50;;;3.10;99.90;;;;;;5038330;28;20711;-80
2020/12/10 03:50:31;;;;;;;33.97;18.20;;;3.20;99.90;;;;;;5038414;28;20232;-80
2020/12/10 03:52:58;;;;;;;24.65;18.33;;;3.20;99.90;;;;;;5034320;28;20251;-80
2020/12/10 03:55:24;;;;;;;28.75;17.67;;;3.20;99.70;;;;;;5051055;28;20253;-81
2020/12/10 03:57:51;;;;;;;37.67;19.05;;;3.20;99.60;;;;;;5050114;28;20360;-80
2020/12/10 04:00:18;;;;;;;24.55;16.73;;;3.20;99.60;;;;;;5032217;28;20264;-81
2020/12/10 04:02:45;;;;;;;27.42;17.58;;;3.20;99.50;;;;;;5033382;28;20253;-80
2020/12/10 04:05:11;;;;;;;27.25;17.85;;;3.10;99.50;;;;;;5032690;28;20258;-80
2020/12/10 04:07:39;;;;;;;25.58;16.35;;;3.10;99.80;;;;;;5032420;28;20243;-80
2020/12/10 04:10:06;;;;;;;28.67;18.02;;;3.00;99.90;;;;;;5032654;28;20541;-80
2020/12/10 04:12:36;;;;;;;27.42;16.98;;;3.10;99.90;;;;;;5051790;28;20235;-80
2020/12/10 04:15:02;;;;;;;26.10;14.00;;;3.20;99.80;;;;;;5031851;28;20213;-80
2020/12/10 04:17:29;;;;;;;29.75;17.30;;;3.10;99.70;;;;;;5047338;28;20226;-81
2020/12/10 04:19:55;;;;;;;29.77;17.48;;;3.20;99.80;;;;;;5050260;28;20234;-81
2020/12/10 04:22:21;;;;;;;29.58;16.95;;;3.20;99.70;;;;;;5049983;28;20245;-81
2020/12/10 04:24:49;;;;;;;28.70;16.10;;;3.10;99.70;;;;;;5050484;28;20232;-81
2020/12/10 04:27:15;;;;;;;34.75;18.05;;;3.10;99.90;;;;;;5050499;28;20232;-80
2020/12/10 04:29:42;;;;;;;26.77;17.33;;;3.10;99.90;;;;;;5035876;28;20657;-81
2020/12/10 04:32:09;;;;;;;34.20;21.00;;;3.10;99.90;;;;;;5048456;28;20211;-80
2020/12/10 04:34:35;;;;;;;32.72;17.48;;;3.10;99.90;;;;;;5049291;28;20247;-80
2020/12/10 04:37:02;;;;;;;28.48;15.82;;;3.10;99.90;;;;;;5034712;28;20235;-80
2020/12/10 04:39:29;;;;;;;30.05;16.63;;;3.10;99.90;;;;;;5049454;28;20239;-80
2020/12/10 04:41:56;;;;;;;28.70;16.45;;;3.20;99.90;;;;;;5036385;28;20196;-81
2020/12/10 04:44:22;;;;;;;31.23;16.48;;;3.10;99.90;;;;;;5046205;28;20196;-80
2020/12/10 04:46:51;;;;;;;28.42;17.23;;;3.10;99.90;;;;;;5049293;28;20297;-80
2020/12/10 04:49:18;;;;;;;31.40;18.05;;;3.10;99.90;;;;;;5047506;28;20214;-80
2020/12/10 04:51:48;;;;;;;29.90;17.90;;;3.10;99.90;;;;;;5050604;28;20261;-80
2020/12/10 04:54:15;;;;;;;35.42;17.92;;;3.00;99.90;;;;;;5047757;28;20620;-80
2020/12/10 04:56:42;;;;;;;38.63;19.10;;;3.00;99.90;;;;;;5050946;28;20204;-81
2020/12/10 04:59:09;;;;;;;33.60;17.70;;;3.00;99.90;;;;;;5048387;28;20227;-80
2020/12/10 05:01:35;;;;;;;32.40;18.40;;;3.10;99.90;;;;;;5047065;28;20193;-80
2020/12/10 05:04:04;;;;;;;31.58;16.92;;;3.20;99.90;;;;;;5037528;28;20200;-81
2020/12/10 05:06:31;;;;;;;29.27;18.30;;;3.20;99.90;;;;;;5049164;28;20212;-81
2020/12/10 05:09:07;;;;;;;35.50;18.42;;;3.10;99.70;;;;;;5042123;28;20232;-81
2020/12/10 05:11:36;;;;;;;32.42;16.45;;;3.10;99.80;;;;;;5030933;28;20226;-81
2020/12/10 05:14:02;;;;;;;35.80;17.40;;;3.00;99.70;;;;;;5040197;28;20224;-80
2020/12/10 05:16:30;;;;;;;29.63;17.10;;;3.00;99.90;;;;;;5047900;28;20427;-80
2020/12/10 05:18:56;;;;;;;30.27;16.70;;;3.00;99.90;;;;;;5034921;28;20752;-80
2020/12/10 05:21:23;;;;;;;30.70;17.13;;;3.00;99.90;;;;;;5032135;28;20300;-81
2020/12/10 05:23:50;;;;;;;34.03;16.95;;;3.00;99.90;;;;;;5040788;28;20254;-80
2020/12/10 05:26:22;;;;;;;36.15;18.88;;;3.00;99.90;;;;;;5031838;28;20204;-80
2020/12/10 05:31:36;;;;;;;37.10;17.33;;;3.00;99.70;;;;;;5038930;28;20201;-80
2020/12/10 05:34:03;;;;;;;34.50;17.23;;;3.00;99.90;;;;;;5039710;28;20251;-80
2020/12/10 05:36:32;;;;;;;36.65;19.27;;;2.90;99.90;;;;;;5049968;28;20204;-80
2020/12/10 05:39:03;;;;;;;34.92;17.90;;;3.00;99.80;;;;;;5050185;28;20224;-83
2020/12/10 05:41:31;;;;;;;35.13;19.45;;;3.00;99.90;;;;;;5038517;28;20524;-82
2020/12/10 05:44:13;;;;;;;34.47;19.08;;;2.90;99.90;;;;;;5036325;28;20219;-82
2020/12/10 05:46:41;;;;;;;38.28;19.63;;;2.90;99.90;;;;;;5046341;28;20300;-83
2020/12/10 05:49:08;;;;;;;33.03;18.88;;;3.00;99.90;;;;;;5044230;28;20208;-82
2020/12/10 05:51:42;;;;;;;32.63;17.83;;;3.00;99.70;;;;;;5050079;28;20223;-83
2020/12/10 05:54:10;;;;;;;40.17;19.08;;;3.00;99.50;;;;;;5038956;28;20262;-82
2020/12/10 05:56:50;;;;;;;39.75;21.20;;;3.00;99.50;;;;;;5030345;28;20556;-83
2020/12/10 05:59:17;;;;;;;41.50;20.33;;;2.90;99.50;;;;;;5032166;28;20235;-83
2020/12/10 06:01:46;;;;;;;37.03;19.45;;;2.90;99.70;;;;;;5044005;28;20252;-85
2020/12/10 06:04:15;;;;;;;36.03;21.52;;;2.90;99.90;;;;;;5042576;28;20231;-85
2020/12/10 06:06:42;;;;;;;33.38;19.33;;;3.00;99.90;;;;;;5035501;28;20315;-84
2020/12/10 06:09:13;;;;;;;31.50;19.95;;;3.00;99.90;;;;;;5043450;28;21123;-85
2020/12/10 06:11:39;;;;;;;33.45;18.23;;;3.00;99.80;;;;;;5041268;28;20305;-85
2020/12/10 06:14:07;;;;;;;31.75;19.05;;;3.00;99.70;;;;;;5035012;28;20274;-85
2020/12/10 06:19:33;;;;;;;27.45;18.95;;;3.10;99.50;;;;;;5049247;28;20200;-85
2020/12/10 06:25:24;;;;;;;38.95;22.60;;;3.00;99.20;;;;;;5047487;28;20736;-85
2020/12/10 06:27:51;;;;;;;34.00;19.85;;;3.10;99.50;;;;;;5049579;28;20266;-85
2020/12/10 06:30:19;;;;;;;36.10;19.15;;;3.20;99.60;;;;;;5032821;28;20254;-85
2020/12/10 06:32:47;;;;;;;34.13;19.75;;;3.20;99.40;;;;;;5039722;28;20223;-85
2020/12/10 06:35:29;;;;;;;41.45;20.33;;;3.30;99.20;;;;;;5052152;28;20297;-85
2020/12/10 06:37:56;;;;;;;30.27;17.80;;;3.20;98.80;;;;;;5044872;28;20197;-86
2020/12/10 06:40:36;;;;;;;38.13;20.23;;;3.10;98.90;;;;;;5054472;28;20208;-85
2020/12/10 06:43:04;;;;;;;37.55;20.25;;;2.60;98.70;;;;;;5048601;28;20220;-85
2020/12/10 06:48:19;;;;;;;33.20;20.20;;;3.00;99.10;;;;;;5053373;28;20673;-86
2020/12/10 06:50:46;;;;;;;34.65;20.23;;;3.10;99.10;;;;;;5054127;28;20243;-85
2020/12/10 06:53:20;;;;;;;31.13;19.65;;;3.10;99.00;;;;;;5049493;28;20221;-84
2020/12/10 06:56:07;;;;;;;39.85;20.98;;;3.00;98.90;;;;;;5033967;28;20258;-85
2020/12/10 06:58:53;;;;;;;31.05;18.25;;;3.10;99.00;;;;;;5034591;28;20205;-86
2020/12/10 07:01:30;;;;;;;39.80;18.98;;;3.00;98.90;;;;;;5035050;28;20215;-85
2020/12/10 07:07:15;;;;;;;27.10;17.67;;;3.00;99.00;;;;;;5044734;28;20204;-86
2020/12/10 07:09:52;;;;;;;35.10;20.75;;;3.00;99.20;;;;;;5049722;28;20203;-86
2020/12/10 07:12:22;;;;;;;30.02;18.40;;;3.00;99.40;;;;;;5052636;28;20234;-85
2020/12/10 07:14:50;;;;;;;33.60;17.88;;;3.00;99.10;;;;;;5048117;28;20621;-85
2020/12/10 07:17:20;;;;;;;31.05;18.63;;;2.90;98.90;;;;;;5051217;28;20239;-86
2020/12/10 07:19:46;;;;;;;30.42;18.27;;;3.00;99.00;;;;;;5049383;28;20200;-85
2020/12/10 07:22:13;;;;;;;27.83;15.98;;;3.00;98.80;;;;;;5052452;28;20200;-86
2020/12/10 07:24:41;;;;;;;29.67;16.98;;;3.10;98.80;;;;;;5052826;28;20204;-86
2020/12/10 07:27:12;;;;;;;26.98;17.65;;;3.10;98.60;;;;;;5048052;28;20204;-86
2020/12/10 07:29:38;;;;;;;28.40;18.17;;;3.00;98.50;;;;;;5052472;28;20279;-86
2020/12/10 07:32:07;;;;;;;25.70;16.63;;;3.00;98.60;;;;;;5040552;28;20546;-86
2020/12/10 07:37:33;;;;;;;30.63;18.20;;;3.10;98.80;;;;;;5034675;28;20201;-85
2020/12/10 07:40:10;;;;;;;30.45;17.98;;;3.10;98.70;;;;;;5053921;28;20208;-85
2020/12/10 07:42:37;;;;;;;33.00;20.27;;;3.70;98.90;;;;;;5033145;28;20204;-84
2020/12/10 07:45:17;;;;;;;30.75;18.10;;;3.30;98.40;;;;;;5043805;28;20603;-86
2020/12/10 07:50:38;;;;;;;26.55;17.17;;;3.20;98.40;;;;;;5050998;28;20208;-85
2020/12/10 07:58:49;;;;;;;40.38;20.23;;;3.20;98.40;;;;;;5043980;28;20700;-86
2020/12/10 08:01:16;;;;;;;36.30;20.15;;;3.20;98.20;;;;;;5051836;28;20200;-85
2020/12/10 08:03:47;;;;;;;36.80;19.85;;;3.20;98.30;;;;;;5046439;28;20733;-86
2020/12/10 08:06:18;;;;;;;33.22;18.38;;;3.20;98.40;;;;;;5043394;28;20196;-85
2020/12/10 08:08:47;;;;;;;32.63;19.52;;;3.30;98.70;;;;;;5044675;28;20209;-86
2020/12/10 08:14:05;;;;;;;29.40;17.50;;;3.20;98.30;;;;;;5038124;28;20224;-86
2020/12/10 08:16:40;;;;;;;33.72;18.63;;;3.10;98.50;;;;;;5050385;28;20239;-86
2020/12/10 08:19:16;;;;;;;47.95;20.95;;;3.10;98.70;;;;;;5041037;28;20223;-86
2020/12/10 08:21:43;;;;;;;32.63;20.90;;;3.20;98.90;;;;;;5043168;28;20586;-86
2020/12/10 08:26:58;;;;;;;32.30;19.55;;;3.30;98.20;;;;;;5047690;28;20196;-86
2020/12/10 08:29:25;;;;;;;33.42;19.38;;;3.20;98.20;;;;;;5045069;28;20262;-85
2020/12/10 08:31:51;;;;;;;30.40;18.70;;;3.30;98.40;;;;;;5045478;28;20654;-86
2020/12/10 08:34:31;;;;;;;25.27;17.80;;;3.20;98.50;;;;;;5049121;28;20219;-86
2020/12/10 08:37:08;;;;;;;31.85;19.90;;;3.30;98.50;;;;;;5047590;28;20211;-85
2020/12/10 08:39:36;;;;;;;33.10;18.60;;;3.40;98.50;;;;;;5041800;28;20277;-85
2020/12/10 08:42:25;;;;;;;30.67;17.80;;;3.40;98.20;;;;;;5050335;28;20266;-85
2020/12/10 08:44:51;;;;;;;27.05;15.98;;;3.40;98.00;;;;;;5036696;28;20254;-86
2020/12/10 08:50:22;;;;;;;28.98;17.00;;;3.50;97.60;;;;;;5050216;28;20208;-86
2020/12/10 08:52:50;;;;;;;22.25;15.55;;;3.50;97.70;;;;;;5051007;28;20206;-85
2020/12/10 08:55:16;;;;;;;23.77;16.05;;;3.50;97.50;;;;;;5082775;28;20200;-86
2020/12/10 08:57:50;;;;;;;26.88;17.52;;;3.50;97.50;;;;;;5048490;28;20204;-86
2020/12/10 09:00:16;;;;;;;25.95;15.90;;;3.50;97.60;;;;;;5032756;28;20235;-86
2020/12/10 09:02:43;;;;;;;29.35;17.83;;;3.60;97.30;;;;;;5042259;28;20707;-85
2020/12/10 09:05:09;;;;;;;24.08;15.55;;;3.60;97.40;;;;;;5048618;28;20223;-85
2020/12/10 09:07:36;;;;;;;20.27;14.07;;;3.60;96.80;;;;;;5048010;28;20196;-84
2020/12/10 09:10:05;;;;;;;18.38;12.60;;;3.60;96.50;;;;;;5031375;28;20258;-84
2020/12/10 09:12:31;;;;;;;15.77;10.75;;;3.50;96.70;;;;;;5037580;28;20212;-84
2020/12/10 09:14:58;;;;;;;15.57;11.43;;;3.40;96.50;;;;;;5030747;28;20220;-84
2020/12/10 09:20:07;;;;;;;12.93;9.18;;;3.40;96.20;;;;;;5035019;28;20219;-85
2020/12/10 09:22:33;;;;;;;13.82;9.75;;;3.60;95.80;;;;;;5046459;28;20207;-84
2020/12/10 09:25:00;;;;;;;12.70;9.52;;;3.50;96.00;;;;;;5047276;28;20204;-84
2020/12/10 09:27:26;;;;;;;14.18;9.20;;;4.80;96.60;;;;;;5050952;28;20200;-85
2020/12/10 09:29:53;;;;;;;10.93;8.20;;;3.50;96.70;;;;;;5033845;28;20577;-86
2020/12/10 09:32:20;;;;;;;10.48;9.18;;;3.50;96.00;;;;;;5039290;28;20463;-84
2020/12/10 09:34:47;;;;;;;13.27;9.95;;;3.80;96.10;;;;;;5030695;28;20224;-84
2020/12/10 09:37:13;;;;;;;12.35;9.00;;;3.80;95.50;;;;;;5042052;28;20200;-84
2020/12/10 09:39:40;;;;;;;14.02;9.48;;;4.00;95.50;;;;;;5034734;28;20266;-83
2020/12/10 09:42:07;;;;;;;12.82;8.73;;;4.00;95.30;;;;;;5031473;28;20544;-84
2020/12/10 09:44:33;;;;;;;12.27;8.27;;;4.10;95.20;;;;;;5044303;28;20200;-84
2020/12/10 09:47:00;;;;;;;9.98;8.38;;;4.20;95.00;;;;;;5051995;28;20669;-84
2020/12/10 09:52:14;;;;;;;11.18;9.02;;;4.20;94.90;;;;;;5050097;28;20273;-84
2020/12/10 09:54:54;;;;;;;11.60;9.07;;;4.20;94.60;;;;;;5048509;28;20224;-84
2020/12/10 09:57:29;;;;;;;11.32;8.75;;;4.30;94.60;;;;;;5041113;28;20279;-84
2020/12/10 10:00:03;;;;;;;11.35;8.40;;;4.40;94.40;;;;;;5050385;28;20226;-84
2020/12/10 10:05:11;;;;;;;9.13;8.23;;;4.40;94.30;;;;;;5050361;28;20554;-84
2020/12/10 10:07:39;;;;;;;11.95;10.15;;;4.30;94.30;;;;;;5035921;28;20662;-84
2020/12/10 10:10:05;;;;;;;12.23;9.45;;;4.30;94.20;;;;;;5032015;28;20204;-84
2020/12/10 10:15:23;;;;;;;19.27;10.52;;;4.30;94.30;;;;;;5049417;28;20215;-84
2020/12/10 10:17:51;;;;;;;16.88;11.18;;;4.40;94.40;;;;;;5047972;28;20207;-84
2020/12/10 10:20:20;;;;;;;12.27;9.05;;;4.20;94.10;;;;;;5031216;28;20224;-84
2020/12/10 10:22:47;;;;;;;14.65;11.13;;;4.30;94.40;;;;;;5032605;28;20200;-84
2020/12/10 10:27:54;;;;;;;16.15;10.68;;;4.40;94.20;;;;;;5031500;28;20295;-84
2020/12/10 10:30:23;;;;;;;17.00;11.07;;;4.30;94.20;;;;;;5034951;28;20630;-84
2020/12/10 10:32:50;;;;;;;15.85;12.02;;;4.30;94.40;;;;;;5036621;28;20200;-84
2020/12/10 10:35:25;;;;;;;17.08;11.80;;;4.40;93.80;;;;;;5030898;28;20255;-84
2020/12/10 10:40:39;;;;;;;16.48;13.07;;;4.30;93.90;;;;;;5042425;28;20689;-85
2020/12/10 10:43:06;;;;;;;16.50;12.60;;;4.20;94.00;;;;;;5033851;28;20227;-84
2020/12/10 10:45:36;;;;;;;17.25;12.07;;;4.30;93.90;;;;;;5049809;28;20731;-84
2020/12/10 10:48:02;;;;;;;18.35;13.52;;;4.30;94.00;;;;;;5035000;28;20774;-84
2020/12/10 10:53:10;;;;;;;19.35;12.52;;;4.30;94.20;;;;;;5049519;28;20740;-85
2020/12/10 10:55:37;;;;;;;17.85;12.90;;;4.40;93.90;;;;;;5053624;28;20212;-84
2020/12/10 11:03:32;;;;;;;23.83;15.18;;;4.20;94.30;;;;;;5047905;28;20701;-83
2020/12/10 11:05:59;;;;;;;18.58;14.32;;;4.40;94.40;;;;;;5036535;28;20204;-84
2020/12/10 11:11:07;;;;;;;20.50;13.85;;;4.40;94.40;;;;;;5047525;28;20204;-84
2020/12/10 11:13:34;;;;;;;20.67;13.68;;;4.40;94.20;;;;;;5036893;28;20220;-84
2020/12/10 11:19:23;;;;;;;25.30;14.80;;;4.30;94.50;;;;;;5041190;28;20209;-84
2020/12/10 11:24:31;;;;;;;21.17;14.68;;;4.30;94.50;;;;;;5053627;28;20204;-84
2020/12/10 11:26:58;;;;;;;20.75;14.48;;;4.40;94.50;;;;;;5054250;28;20219;-84
2020/12/10 11:29:40;;;;;;;25.80;14.90;;;4.40;94.40;;;;;;5037816;28;20220;-84
2020/12/10 11:32:17;;;;;;;21.38;14.23;;;3.80;94.30;;;;;;5042702;28;20212;-84
2020/12/10 11:37:25;;;;;;;22.42;14.75;;;4.10;95.50;;;;;;5047411;28;20293;-84
2020/12/10 11:39:54;;;;;;;21.45;14.90;;;4.10;95.40;;;;;;5044341;28;20204;-84
2020/12/10 11:45:04;;;;;;;19.33;14.48;;;4.20;95.30;;;;;;5035330;28;20214;-84
2020/12/10 11:47:31;;;;;;;20.27;13.70;;;4.20;95.50;;;;;;5049728;28;20196;-84
2020/12/10 11:49:57;;;;;;;24.88;15.98;;;4.20;95.70;;;;;;5032612;28;20435;-84
2020/12/10 11:52:25;;;;;;;23.50;15.65;;;4.30;95.80;;;;;;5044520;28;20376;-83
2020/12/10 11:54:51;;;;;;;20.08;14.13;;;4.20;95.40;;;;;;5047889;28;20220;-83
2020/12/10 11:57:20;;;;;;;22.95;15.30;;;4.30;95.40;;;;;;5051184;28;20231;-85
2020/12/10 11:59:47;;;;;;;23.65;14.82;;;4.20;95.30;;;;;;5050413;28;20204;-83
2020/12/10 12:02:13;;;;;;;21.02;13.13;;;4.30;95.50;;;;;;5051684;28;20204;-84
2020/12/10 12:04:40;;;;;;;21.90;14.77;;;4.40;95.60;;;;;;5049952;28;20232;-83
2020/12/10 12:09:49;;;;;;;19.98;14.45;;;4.30;95.30;;;;;;5032480;28;20204;-84
2020/12/10 12:14:57;;;;;;;19.77;13.95;;;4.40;95.30;;;;;;5042879;28;20220;-83
2020/12/10 12:20:24;;;;;;;22.83;15.65;;;4.30;95.00;;;;;;5050749;28;20335;-83
2020/12/10 12:22:51;;;;;;;29.77;16.92;;;4.30;95.20;;;;;;5049668;28;20567;-83
2020/12/10 12:25:39;;;;;;;24.88;15.25;;;4.30;95.70;;;;;;5042213;28;20197;-83
2020/12/10 12:28:07;;;;;;;22.45;15.38;;;4.20;96.00;;;;;;5046434;28;20207;-83
2020/12/10 12:30:34;;;;;;;26.65;16.30;;;4.30;96.00;;;;;;5040983;28;20598;-83
2020/12/10 12:33:01;;;;;;;24.65;15.32;;;4.80;96.10;;;;;;5049877;28;20297;-82
2020/12/10 12:38:55;;;;;;;22.58;13.98;;;4.40;95.60;;;;;;5039930;28;20291;-83
2020/12/10 12:41:35;;;;;;;22.27;13.75;;;4.40;95.30;;;;;;5049269;28;20219;-82
2020/12/10 12:44:30;;;;;;;21.83;13.88;;;4.40;95.60;;;;;;5044259;28;20314;-83
2020/12/10 12:50:08;;;;;;;19.67;13.85;;;4.50;95.60;;;;;;5046597;28;20206;-83
2020/12/10 12:52:38;;;;;;;20.15;13.35;;;4.50;95.50;;;;;;5047007;28;20201;-83
2020/12/10 12:55:05;;;;;;;25.08;15.15;;;4.50;95.50;;;;;;5046544;28;20223;-82
2020/12/10 12:57:32;;;;;;;26.92;14.40;;;4.70;95.30;;;;;;5049068;28;20208;-83
2020/12/10 13:00:03;;;;;;;20.63;16.27;;;4.50;95.40;;;;;;5051338;28;20254;-83
2020/12/10 13:02:43;;;;;;;25.90;16.50;;;4.60;95.60;;;;;;5037897;28;20226;-83
2020/12/10 13:05:09;;;;;;;22.40;14.35;;;5.00;95.80;;;;;;5044215;28;20196;-83
2020/12/10 13:07:45;;;;;;;23.48;14.52;;;4.70;95.50;;;;;;5045939;28;20238;-82
2020/12/10 13:10:35;;;;;;;21.98;14.52;;;4.70;95.30;;;;;;5046932;28;20615;-83
2020/12/10 13:13:19;;;;;;;21.35;15.18;;;4.60;95.00;;;;;;5049509;28;20246;-82
2020/12/10 13:15:50;;;;;;;22.02;14.82;;;4.50;95.10;;;;;;5031412;28;20196;-83
2020/12/10 13:18:16;;;;;;;26.15;15.48;;;4.50;95.20;;;;;;5035372;28;20290;-82
2020/12/10 13:20:47;;;;;;;21.23;14.68;;;4.50;95.30;;;;;;5051008;28;20195;-83
2020/12/10 13:23:13;;;;;;;29.25;15.85;;;4.50;95.40;;;;;;5036909;28;20204;-83
2020/12/10 13:31:34;;;;;;;23.10;14.25;;;4.80;95.50;;;;;;5047837;28;20228;-83
2020/12/10 13:34:05;;;;;;;24.55;14.90;;;4.50;95.30;;;;;;5041777;28;20278;-83
2020/12/10 13:36:32;;;;;;;19.30;13.75;;;4.40;95.30;;;;;;5046618;28;20204;-83
2020/12/10 13:38:59;;;;;;;22.00;14.50;;;4.30;95.30;;;;;;5039788;28;20255;-83
2020/12/10 13:41:26;;;;;;;23.48;15.88;;;4.40;95.40;;;;;;5050810;28;20207;-83
2020/12/10 13:43:53;;;;;;;23.98;16.17;;;4.40;95.30;;;;;;5035712;28;20564;-83
2020/12/10 13:46:29;;;;;;;22.20;14.90;;;4.40;95.40;;;;;;5040716;28;20200;-83
2020/12/10 13:51:36;;;;;;;23.40;14.48;;;4.40;95.50;;;;;;5048867;28;20191;-83
2020/12/10 13:54:03;;;;;;;24.55;15.45;;;4.40;95.20;;;;;;5036166;28;20269;-84
2020/12/10 13:56:31;;;;;;;19.48;13.45;;;4.40;95.30;;;;;;5048613;28;20250;-83
2020/12/10 13:59:22;;;;;;;26.10;15.73;;;4.40;95.30;;;;;;5038187;28;20292;-83
2020/12/10 14:01:51;;;;;;;26.20;16.38;;;4.30;95.10;;;;;;5030482;28;20213;-84
2020/12/10 14:04:18;;;;;;;23.13;14.57;;;4.30;95.20;;;;;;5038176;28;20192;-83
2020/12/10 14:06:45;;;;;;;24.33;15.10;;;4.30;95.30;;;;;;5041235;28;20404;-84
2020/12/10 14:09:12;;;;;;;20.83;14.88;;;4.50;95.30;;;;;;5040604;28;20204;-84
2020/12/10 14:11:42;;;;;;;24.80;16.65;;;4.50;95.30;;;;;;5035491;28;20204;-84
2020/12/10 14:14:09;;;;;;;22.92;15.18;;;4.50;95.20;;;;;;5040094;28;20208;-84
2020/12/10 14:16:37;;;;;;;20.98;14.38;;;4.60;95.20;;;;;;5029823;28;20197;-83
2020/12/10 14:21:46;;;;;;;22.77;15.73;;;4.50;94.90;;;;;;5039148;28;20632;-84
2020/12/10 14:24:34;;;;;;;23.85;15.57;;;4.50;95.10;;;;;;5046360;28;20602;-83
2020/12/10 14:27:01;;;;;;;22.63;16.15;;;4.50;95.10;;;;;;5033814;28;20254;-84